San Isabel, Colorado
Current Conditions -  °F | °C
As of 7:53 PM on Friday 31 Oct 2014 (Local Time) from KPUB Reporting Station
Clear Clear  
Wind Chill: 45°   Ceiling: Unl
Heat Index: 49°   Visibility: 10mi
Dew Point: 27°   Wind: 10mph
Humidity: 43%   Direction: 310°NW
Pressure: 30.13"   Gusts: NA
Location:  37.9584°N, 104.823°W
Report Text: KPUB 010153Z AUTO 31009KT 10SM CLR 09/M03 A3013 RMK AO2 SLP197 T00941028
Loading
Personal Weather Stations






























Interactive Weather Map
Tropical Storm Tracking
New forecast layout! Learn more

10-Day Weather Forecast

Advertisements
Track Severe Weather on mobile